Time;durP1;ratioP1;P1;durP2;ratioP2;P2;SDS_P1;SDS_P2;PMS_P1;PMS_P2;Temp;Humidity;BMP_temperature;BMP_pressure;BME280_temperature;BME280_humidity;BME280_pressure;Samples;Min_cycle;Max_cycle;Signal;HPM_P1;HPM_P2
2022/02/06 00:00:09;;;;;;;3.65;2.50;;;5.00;99.90;;;;;;5075188;28;20206;-70
2022/02/06 00:02:39;;;;;;;4.85;2.40;;;5.00;99.90;;;;;;5075379;28;20219;-71
2022/02/06 00:05:06;;;;;;;3.55;2.17;;;5.00;99.90;;;;;;5075231;28;20227;-71
2022/02/06 00:07:33;;;;;;;4.00;2.72;;;5.00;99.90;;;;;;5075180;28;20293;-70
2022/02/06 00:10:01;;;;;;;5.95;2.45;;;5.00;99.90;;;;;;5074822;28;20746;-70
2022/02/06 00:12:28;;;;;;;3.95;2.67;;;5.00;99.90;;;;;;5074960;28;20317;-71
2022/02/06 00:14:55;;;;;;;6.68;2.50;;;5.00;99.90;;;;;;5074796;28;20223;-70
2022/02/06 00:17:22;;;;;;;4.07;2.45;;;4.90;99.90;;;;;;5074980;28;20209;-70
2022/02/06 00:19:49;;;;;;;4.28;2.63;;;4.90;99.90;;;;;;5074748;28;20208;-70
2022/02/06 00:22:27;;;;;;;2.92;2.70;;;4.90;99.90;;;;;;5074771;28;20199;-70
2022/02/06 00:25:09;;;;;;;3.50;2.80;;;4.80;99.90;;;;;;5074828;28;20225;-70
2022/02/06 00:27:48;;;;;;;3.53;2.58;;;4.80;99.90;;;;;;5074781;28;20206;-70
2022/02/06 00:30:24;;;;;;;4.80;2.60;;;4.80;99.90;;;;;;5074361;28;20664;-70
2022/02/06 00:32:55;;;;;;;5.53;2.30;;;4.90;99.90;;;;;;5074685;28;20198;-70
2022/02/06 00:35:31;;;;;;;6.97;2.78;;;4.90;99.90;;;;;;5074413;28;20740;-70
2022/02/06 00:41:06;;;;;;;5.78;2.92;;;4.90;99.90;;;;;;5074140;28;20645;-70
2022/02/06 00:43:34;;;;;;;3.80;2.42;;;4.90;99.90;;;;;;5074274;28;20687;-70
2022/02/06 00:46:01;;;;;;;2.28;1.88;;;4.90;99.90;;;;;;5074186;28;20236;-70
2022/02/06 00:48:29;;;;;;;6.63;2.50;;;4.90;99.90;;;;;;5074382;28;20301;-70
2022/02/06 00:51:05;;;;;;;4.20;2.22;;;4.90;99.90;;;;;;5073335;28;20697;-70
2022/02/06 00:53:31;;;;;;;5.35;2.55;;;4.90;99.90;;;;;;5074255;28;20210;-70
2022/02/06 00:55:59;;;;;;;4.15;2.28;;;5.00;99.90;;;;;;5074159;28;20231;-70
2022/02/06 00:58:26;;;;;;;3.45;2.00;;;5.00;99.90;;;;;;5074159;28;20206;-70
2022/02/06 01:00:54;;;;;;;2.78;2.17;;;5.00;99.90;;;;;;5073649;28;20209;-70
2022/02/06 01:03:22;;;;;;;3.70;2.00;;;5.00;99.90;;;;;;5074124;28;20300;-70
2022/02/06 01:05:48;;;;;;;3.85;2.00;;;5.10;99.90;;;;;;5074042;28;20317;-70
2022/02/06 01:08:15;;;;;;;2.70;2.28;;;5.10;99.90;;;;;;5074478;28;20294;-70
2022/02/06 01:10:42;;;;;;;3.80;2.10;;;5.10;99.90;;;;;;5073605;28;20214;-70
2022/02/06 01:13:18;;;;;;;7.28;2.20;;;5.10;99.90;;;;;;5073982;28;20305;-70
2022/02/06 01:15:51;;;;;;;5.20;2.35;;;5.10;99.90;;;;;;5074045;28;20222;-70
2022/02/06 01:18:26;;;;;;;2.60;1.95;;;5.20;99.90;;;;;;5073892;28;20202;-70
2022/02/06 01:21:04;;;;;;;2.90;1.85;;;5.20;99.90;;;;;;5073640;28;20198;-70
2022/02/06 01:23:40;;;;;;;7.05;2.28;;;5.20;99.90;;;;;;5073936;28;20550;-70
2022/02/06 01:26:17;;;;;;;3.13;2.25;;;5.20;99.90;;;;;;5073864;28;20218;-70
2022/02/06 01:28:50;;;;;;;2.80;1.85;;;5.20;99.90;;;;;;5073782;28;20268;-70
2022/02/06 01:31:32;;;;;;;2.63;1.90;;;5.20;99.90;;;;;;5073551;28;20584;-70
2022/02/06 01:34:02;;;;;;;4.00;1.80;;;5.30;99.90;;;;;;5073593;28;20234;-70
2022/02/06 01:36:38;;;;;;;3.70;2.30;;;5.20;99.90;;;;;;5073743;28;20194;-70
2022/02/06 01:39:13;;;;;;;3.35;2.10;;;5.20;99.90;;;;;;5073697;28;20202;-70
2022/02/06 01:41:43;;;;;;;2.90;1.80;;;5.20;99.90;;;;;;5073479;28;20293;-70
2022/02/06 01:44:27;;;;;;;2.70;1.90;;;5.20;99.90;;;;;;5073450;28;20230;-71
2022/02/06 01:57:19;;;;;;;5.22;1.90;;;5.10;99.90;;;;;;5073416;28;20631;-71
2022/02/06 02:01:11;;;;;;;3.30;2.10;;;5.30;99.90;;;;;;5073241;28;20285;-70
2022/02/06 02:03:45;;;;;;;3.40;2.20;;;5.30;99.90;;;;;;5076996;28;20614;-70
2022/02/06 02:11:54;;;;;;;2.40;2.00;;;5.40;99.90;;;;;;5076951;28;20225;-70
2022/02/06 02:20:16;;;;;;;2.38;2.15;;;5.40;99.90;;;;;;5071163;28;20285;-70
2022/02/06 02:31:22;;;;;;;4.22;2.30;;;5.40;99.90;;;;;;5076169;28;20242;-70
2022/02/06 02:45:18;;;;;;;2.72;1.83;;;5.50;99.90;;;;;;5014535;28;20225;-71
2022/02/06 02:47:48;;;;;;;3.50;1.80;;;5.40;99.90;;;;;;5014763;28;20274;-71
2022/02/06 02:50:19;;;;;;;2.30;2.05;;;5.50;99.90;;;;;;5049580;28;20215;-70
2022/02/06 02:52:56;;;;;;;3.67;1.77;;;5.40;99.90;;;;;;5076544;28;20318;-71
2022/02/06 02:58:32;;;;;;;2.15;1.50;;;5.40;99.90;;;;;;5040148;28;20202;-71
2022/02/06 03:01:06;;;;;;;4.75;2.10;;;5.40;99.90;;;;;;5076133;28;20206;-70
2022/02/06 03:03:35;;;;;;;3.75;1.70;;;5.50;99.90;;;;;;5076372;28;20218;-70
2022/02/06 03:06:04;;;;;;;4.70;1.80;;;5.40;99.90;;;;;;5076158;28;20223;-71
2022/02/06 03:08:32;;;;;;;2.13;1.60;;;5.40;99.90;;;;;;5076310;28;20571;-70
2022/02/06 03:11:05;;;;;;;2.20;1.50;;;5.50;99.90;;;;;;5076057;28;20565;-70
2022/02/06 03:13:38;;;;;;;2.58;1.92;;;5.40;99.90;;;;;;5075586;28;20280;-70
2022/02/06 03:16:17;;;;;;;2.25;1.98;;;5.30;99.90;;;;;;5075786;28;20313;-70
2022/02/06 03:18:51;;;;;;;2.78;2.03;;;5.40;99.90;;;;;;5075933;28;20248;-70
2022/02/06 03:21:21;;;;;;;3.88;1.80;;;5.40;99.90;;;;;;5076034;28;20203;-70
2022/02/06 03:23:51;;;;;;;4.20;1.98;;;5.40;99.90;;;;;;5076096;28;20241;-70
2022/02/06 03:26:20;;;;;;;3.25;1.67;;;5.40;99.90;;;;;;5076009;28;20218;-70
2022/02/06 03:28:47;;;;;;;2.10;1.80;;;5.30;99.90;;;;;;5075890;28;20265;-70
2022/02/06 03:31:15;;;;;;;2.45;1.52;;;5.30;99.90;;;;;;5075889;28;20203;-70
2022/02/06 03:33:42;;;;;;;3.17;1.92;;;5.30;99.90;;;;;;5075884;28;20293;-70
2022/02/06 03:36:09;;;;;;;3.97;1.70;;;5.20;99.90;;;;;;5075429;28;20254;-70
2022/02/06 03:38:36;;;;;;;3.83;1.63;;;5.30;99.90;;;;;;5075931;28;20202;-70
2022/02/06 03:41:07;;;;;;;4.13;1.52;;;5.30;99.90;;;;;;5075411;28;20199;-70
2022/02/06 03:43:45;;;;;;;4.95;1.63;;;5.30;99.90;;;;;;5075369;28;20209;-70
2022/02/06 03:46:16;;;;;;;4.20;1.30;;;5.40;99.90;;;;;;5075324;28;20226;-70
2022/02/06 03:48:47;;;;;;;2.38;1.38;;;5.40;99.90;;;;;;5075704;28;20225;-70
2022/02/06 03:51:20;;;;;;;3.08;1.85;;;5.40;99.90;;;;;;5075361;28;20203;-70
2022/02/06 03:53:49;;;;;;;3.58;1.55;;;5.50;99.90;;;;;;5075601;28;20722;-70
2022/02/06 03:56:16;;;;;;;2.70;1.70;;;5.40;99.90;;;;;;5075481;28;20258;-70
2022/02/06 03:58:44;;;;;;;6.00;2.08;;;5.50;99.90;;;;;;5075378;28;20281;-70
2022/02/06 04:01:11;;;;;;;3.58;1.80;;;5.50;99.90;;;;;;5075290;28;20686;-70
2022/02/06 04:03:38;;;;;;;3.70;1.70;;;5.50;99.90;;;;;;5075547;28;20241;-70
2022/02/06 04:06:04;;;;;;;1.63;1.52;;;5.60;99.90;;;;;;5075004;28;20223;-70
2022/02/06 04:08:34;;;;;;;2.65;1.70;;;5.60;99.90;;;;;;5075178;28;20563;-70
2022/02/06 04:11:04;;;;;;;2.80;1.55;;;5.60;99.90;;;;;;5074991;28;20198;-70
2022/02/06 04:13:34;;;;;;;3.63;1.70;;;5.60;99.90;;;;;;5075121;28;20557;-70
2022/02/06 04:16:05;;;;;;;2.17;1.40;;;5.60;99.90;;;;;;5075021;28;20226;-71
2022/02/06 04:18:41;;;;;;;8.38;3.92;;;5.70;99.90;;;;;;5075046;28;20238;-70
2022/02/06 04:21:07;;;;;;;7.68;3.42;;;5.70;99.90;;;;;;5074795;28;20206;-70
2022/02/06 04:23:34;;;;;;;2.50;1.50;;;5.80;99.90;;;;;;5074893;28;20306;-71
2022/02/06 04:26:01;;;;;;;4.15;1.20;;;5.80;99.90;;;;;;5073677;28;20276;-70
2022/02/06 04:28:28;;;;;;;1.73;1.40;;;5.80;99.90;;;;;;5074706;28;20743;-70
2022/02/06 04:30:55;;;;;;;2.67;1.52;;;5.90;99.90;;;;;;5074381;28;20205;-70
2022/02/06 04:33:23;;;;;;;1.80;1.70;;;6.00;99.90;;;;;;5074585;28;20329;-70
2022/02/06 04:35:54;;;;;;;2.40;1.75;;;5.90;99.90;;;;;;5074609;28;20288;-70
2022/02/06 04:38:37;;;;;;;3.28;1.40;;;6.00;99.90;;;;;;5074598;28;20203;-70
2022/02/06 04:41:14;;;;;;;3.03;1.90;;;6.00;99.90;;;;;;5074234;28;20602;-70
2022/02/06 04:50:00;;;;;;;8.95;4.55;;;6.10;99.90;;;;;;5065293;28;20201;-70
2022/02/06 05:12:34;;;;;;;2.42;1.75;;;6.10;99.90;;;;;;5074008;28;20293;-70
2022/02/06 05:15:03;;;;;;;3.05;1.45;;;6.10;99.90;;;;;;5073670;28;20222;-70
2022/02/06 05:20:49;;;;;;;4.00;1.70;;;6.10;99.90;;;;;;5058078;28;20195;-70
2022/02/06 05:28:55;;;;;;;2.50;1.80;;;6.00;99.90;;;;;;5073681;28;20669;-70
2022/02/06 05:31:33;;;;;;;4.25;1.80;;;6.00;99.90;;;;;;5073463;28;20570;-70
2022/02/06 05:34:00;;;;;;;7.30;2.35;;;6.00;99.90;;;;;;5073686;28;20633;-70
2022/02/06 05:36:27;;;;;;;3.60;1.80;;;6.10;99.90;;;;;;5073577;28;20245;-70
2022/02/06 05:38:55;;;;;;;2.80;1.85;;;6.10;99.90;;;;;;5073567;28;20613;-71
2022/02/06 05:41:23;;;;;;;2.65;1.75;;;6.10;99.90;;;;;;5073606;28;20290;-70
2022/02/06 05:43:50;;;;;;;3.40;1.70;;;6.00;99.90;;;;;;5073620;28;20199;-71
2022/02/06 05:46:18;;;;;;;6.30;2.03;;;6.10;99.90;;;;;;5073228;28;20747;-71
2022/02/06 05:48:46;;;;;;;4.53;2.08;;;6.10;99.90;;;;;;5073555;28;20225;-70
2022/02/06 05:51:15;;;;;;;1.60;1.50;;;6.10;99.90;;;;;;5073244;28;20206;-70
2022/02/06 05:53:42;;;;;;;3.50;1.70;;;6.10;99.90;;;;;;5073309;28;20697;-70
2022/02/06 05:56:10;;;;;;;2.00;1.50;;;6.10;99.90;;;;;;5073664;28;20309;-70
2022/02/06 05:58:38;;;;;;;2.40;1.48;;;6.20;99.90;;;;;;5073401;28;20199;-70
2022/02/06 06:01:05;;;;;;;2.67;1.77;;;6.20;99.90;;;;;;5073284;28;20198;-70
2022/02/06 06:03:32;;;;;;;4.90;2.45;;;6.20;99.90;;;;;;5073399;28;20293;-70
2022/02/06 06:05:58;;;;;;;2.85;1.70;;;6.20;99.90;;;;;;5073404;28;20318;-70
2022/02/06 06:08:25;;;;;;;3.60;1.60;;;6.20;99.90;;;;;;5073368;28;20199;-70
2022/02/06 06:10:52;;;;;;;2.50;1.83;;;6.20;99.90;;;;;;5073058;28;20281;-70
2022/02/06 06:13:20;;;;;;;3.03;1.58;;;6.20;99.90;;;;;;5073170;28;20219;-70
2022/02/06 06:15:47;;;;;;;2.38;1.50;;;6.20;99.90;;;;;;5073308;28;20583;-70
2022/02/06 06:18:14;;;;;;;2.58;1.90;;;6.20;99.90;;;;;;5073314;28;20225;-70
2022/02/06 06:20:44;;;;;;;3.78;1.85;;;6.20;99.90;;;;;;5072952;28;20297;-70
2022/02/06 06:23:11;;;;;;;2.88;1.80;;;6.20;99.90;;;;;;5073209;28;20297;-70
2022/02/06 06:25:40;;;;;;;4.53;1.90;;;6.20;99.90;;;;;;5072933;28;20218;-70
2022/02/06 06:28:07;;;;;;;3.63;1.90;;;6.20;99.90;;;;;;5073217;28;20598;-70
2022/02/06 06:30:37;;;;;;;3.63;2.05;;;6.20;99.90;;;;;;5072942;28;20568;-70
2022/02/06 06:33:05;;;;;;;4.70;1.75;;;6.20;99.90;;;;;;5073657;28;20576;-70
2022/02/06 06:35:32;;;;;;;2.17;1.60;;;6.20;99.90;;;;;;5073271;28;20313;-70
2022/02/06 06:38:00;;;;;;;5.00;1.92;;;6.20;99.90;;;;;;5073427;28;20297;-70
2022/02/06 06:40:27;;;;;;;3.08;1.75;;;6.20;99.90;;;;;;5072794;28;20244;-70
2022/02/06 06:42:54;;;;;;;4.53;2.08;;;6.20;99.90;;;;;;5073103;28;20293;-70
2022/02/06 06:45:23;;;;;;;3.60;1.60;;;6.30;99.90;;;;;;5073381;28;20608;-70
2022/02/06 06:47:55;;;;;;;3.15;1.70;;;6.30;99.90;;;;;;5072826;28;20203;-70
2022/02/06 06:50:24;;;;;;;8.32;1.70;;;6.20;99.90;;;;;;5075524;28;20580;-70
2022/02/06 06:52:51;;;;;;;2.92;1.67;;;6.30;99.90;;;;;;5076760;28;20226;-70
2022/02/06 06:55:20;;;;;;;1.92;1.35;;;6.30;99.90;;;;;;5076301;28;20226;-70
2022/02/06 06:57:55;;;;;;;2.78;1.70;;;6.30;99.90;;;;;;5076817;28;20209;-70
2022/02/06 07:00:35;;;;;;;2.17;1.52;;;6.30;99.90;;;;;;5076268;28;20210;-70
2022/02/06 07:03:03;;;;;;;2.50;1.42;;;6.40;99.90;;;;;;5076263;28;20205;-70
2022/02/06 07:05:31;;;;;;;2.50;1.50;;;6.30;99.90;;;;;;5076235;28;20233;-71
2022/02/06 07:07:58;;;;;;;6.05;3.28;;;6.40;99.90;;;;;;5076385;28;20207;-71
2022/02/06 07:10:25;;;;;;;3.63;1.90;;;6.40;99.90;;;;;;5076213;28;20245;-70
2022/02/06 07:12:52;;;;;;;2.83;1.70;;;6.40;99.90;;;;;;5076218;28;20229;-71
2022/02/06 07:15:18;;;;;;;3.95;2.00;;;6.40;99.90;;;;;;5076386;28;20219;-70
2022/02/06 07:17:45;;;;;;;5.15;1.73;;;6.40;99.90;;;;;;5076154;28;20293;-70
2022/02/06 07:20:14;;;;;;;2.40;2.00;;;6.40;99.90;;;;;;5076696;28;20658;-70
2022/02/06 07:22:44;;;;;;;4.30;1.60;;;6.40;99.90;;;;;;5076045;28;20293;-71
2022/02/06 07:25:10;;;;;;;3.10;2.10;;;6.50;99.90;;;;;;5075984;28;20226;-70
2022/02/06 07:27:41;;;;;;;3.45;1.50;;;6.50;99.90;;;;;;5076012;28;20294;-71
2022/02/06 07:30:09;;;;;;;2.75;1.80;;;6.50;99.90;;;;;;5076020;28;20249;-70
2022/02/06 07:32:38;;;;;;;3.95;1.70;;;6.50;99.90;;;;;;5075856;28;20306;-71
2022/02/06 07:35:08;;;;;;;5.38;1.70;;;6.50;99.90;;;;;;5075629;28;20254;-71
2022/02/06 07:37:37;;;;;;;3.95;2.63;;;6.60;99.90;;;;;;5075846;28;20209;-71
2022/02/06 07:40:04;;;;;;;7.97;2.83;;;6.60;99.90;;;;;;5075640;28;20202;-70
2022/02/06 07:42:32;;;;;;;3.22;2.83;;;6.60;99.90;;;;;;5075838;28;20207;-70
2022/02/06 07:44:59;;;;;;;2.35;1.80;;;6.60;99.90;;;;;;5075402;28;20273;-70
2022/02/06 07:47:26;;;;;;;2.40;1.70;;;6.60;99.90;;;;;;5075745;28;20249;-70
2022/02/06 07:49:57;;;;;;;2.13;1.70;;;6.70;99.90;;;;;;5075213;28;20689;-70
2022/02/06 07:52:25;;;;;;;2.58;1.95;;;6.70;99.90;;;;;;5075858;28;20238;-70
2022/02/06 07:54:54;;;;;;;3.60;1.80;;;6.70;99.90;;;;;;5075364;28;20227;-70
2022/02/06 07:57:21;;;;;;;4.10;1.70;;;6.80;99.90;;;;;;5075671;28;20293;-70
2022/02/06 07:59:49;;;;;;;3.97;2.30;;;6.80;99.90;;;;;;5075110;28;20293;-70
2022/02/06 08:02:16;;;;;;;3.13;1.80;;;6.80;99.90;;;;;;5075216;28;20234;-71
2022/02/06 08:04:45;;;;;;;1.63;1.50;;;6.80;99.90;;;;;;5075190;28;20222;-70
2022/02/06 08:07:12;;;;;;;2.55;2.20;;;6.90;99.90;;;;;;5075562;28;20207;-71
2022/02/06 08:09:53;;;;;;;4.05;3.08;;;6.90;99.90;;;;;;5075104;28;20297;-69
2022/02/06 08:12:26;;;;;;;7.07;4.25;;;7.00;99.90;;;;;;5075237;28;20202;-70
2022/02/06 08:14:55;;;;;;;6.88;3.88;;;7.00;99.90;;;;;;5074985;28;20230;-70
2022/02/06 08:17:27;;;;;;;3.75;2.47;;;7.00;99.90;;;;;;5075107;28;20214;-69
2022/02/06 08:19:55;;;;;;;3.78;2.38;;;7.00;99.90;;;;;;5075210;28;20206;-70
2022/02/06 08:22:22;;;;;;;4.85;3.03;;;7.00;99.90;;;;;;5075114;28;20209;-70
2022/02/06 08:24:50;;;;;;;6.00;1.95;;;7.00;99.90;;;;;;5074859;28;20314;-70
2022/02/06 08:27:18;;;;;;;4.13;2.08;;;7.00;99.90;;;;;;5075183;28;20202;-70
2022/02/06 08:29:47;;;;;;;8.27;1.65;;;7.00;99.90;;;;;;5074640;28;20202;-70
2022/02/06 08:32:15;;;;;;;4.10;3.00;;;7.00;99.90;;;;;;5074910;28;20207;-70
2022/02/06 08:34:42;;;;;;;7.00;1.77;;;7.00;99.90;;;;;;5074483;28;20230;-70
2022/02/06 08:37:09;;;;;;;4.97;1.52;;;7.00;99.90;;;;;;5074674;28;20225;-70
2022/02/06 08:39:37;;;;;;;1.48;1.38;;;7.10;99.90;;;;;;5074622;28;20306;-70
2022/02/06 08:42:09;;;;;;;1.95;1.20;;;7.20;99.90;;;;;;5074493;28;20203;-70
2022/02/06 08:44:36;;;;;;;4.82;2.85;;;7.20;99.90;;;;;;5074566;28;20618;-70
2022/02/06 08:47:05;;;;;;;2.85;1.65;;;7.20;99.90;;;;;;5074089;28;20207;-70
2022/02/06 08:49:32;;;;;;;1.58;1.45;;;7.30;99.90;;;;;;5074111;28;20199;-70
2022/02/06 08:51:59;;;;;;;3.05;1.42;;;7.30;99.90;;;;;;5074214;28;20209;-70
2022/02/06 08:54:29;;;;;;;1.85;1.60;;;7.40;99.90;;;;;;5073956;28;20223;-69
2022/02/06 08:57:01;;;;;;;2.33;1.50;;;7.50;99.90;;;;;;5074417;28;20611;-70
2022/02/06 08:59:30;;;;;;;3.97;1.50;;;7.50;99.90;;;;;;5074551;28;20611;-70
2022/02/06 09:01:59;;;;;;;2.80;1.60;;;7.50;99.90;;;;;;5073865;28;20206;-70
2022/02/06 09:04:27;;;;;;;1.98;1.50;;;7.60;99.90;;;;;;5074079;28;20218;-70
2022/02/06 09:06:58;;;;;;;2.10;1.30;;;7.60;99.90;;;;;;5073815;28;20690;-70
2022/02/06 09:09:25;;;;;;;2.35;1.80;;;7.70;99.90;;;;;;5074100;28;20206;-70
2022/02/06 09:11:52;;;;;;;2.70;1.50;;;7.70;99.90;;;;;;5073252;28;20206;-69
2022/02/06 09:14:21;;;;;;;3.22;2.38;;;7.80;99.90;;;;;;5073796;28;20237;-70
2022/02/06 09:16:47;;;;;;;2.60;1.70;;;7.80;99.90;;;;;;5073952;28;20203;-70
2022/02/06 09:19:15;;;;;;;1.98;1.60;;;7.90;99.90;;;;;;5073914;28;20211;-70
2022/02/06 09:21:43;;;;;;;3.70;1.50;;;7.80;99.90;;;;;;5073591;28;20245;-70
2022/02/06 09:24:10;;;;;;;2.80;1.73;;;7.80;99.90;;;;;;5073804;28;20305;-70
2022/02/06 09:26:38;;;;;;;2.90;1.45;;;7.80;99.90;;;;;;5073878;28;20294;-70
2022/02/06 09:29:06;;;;;;;1.88;1.73;;;7.80;99.90;;;;;;5073765;28;20206;-70
2022/02/06 09:31:33;;;;;;;1.80;1.70;;;7.70;99.90;;;;;;5073608;28;20558;-70
2022/02/06 09:36:26;;;;;;;2.50;1.20;;;7.80;99.90;;;;;;5073798;28;20627;-70
2022/02/06 09:38:57;;;;;;;2.35;1.35;;;7.70;99.90;;;;;;5073553;28;20199;-70
2022/02/06 09:41:24;;;;;;;3.58;1.33;;;7.70;99.90;;;;;;5073236;28;20237;-70
2022/02/06 09:43:53;;;;;;;2.92;1.50;;;7.70;99.90;;;;;;5073545;28;20202;-70
2022/02/06 09:46:21;;;;;;;4.13;2.42;;;7.70;99.90;;;;;;5073241;28;20241;-70
2022/02/06 09:48:50;;;;;;;1.50;1.40;;;7.80;99.90;;;;;;5073353;28;20218;-70
2022/02/06 09:51:17;;;;;;;2.10;1.55;;;7.90;99.90;;;;;;5073398;28;20246;-70
2022/02/06 09:53:44;;;;;;;2.60;1.48;;;7.90;99.90;;;;;;5073418;28;20229;-70
2022/02/06 09:56:14;;;;;;;1.88;1.67;;;7.90;99.90;;;;;;5073257;28;20227;-70
2022/02/06 09:59:01;;;;;;;3.05;1.85;;;7.90;99.90;;;;;;5073464;28;20202;-70
2022/02/06 10:01:28;;;;;;;3.05;1.30;;;8.10;99.90;;;;;;5073311;28;20206;-70
2022/02/06 10:04:06;;;;;;;2.00;1.60;;;8.20;99.90;;;;;;5073306;28;20198;-69
2022/02/06 10:06:39;;;;;;;2.83;1.67;;;8.30;99.90;;;;;;5073094;28;20195;-69
2022/02/06 10:09:09;;;;;;;2.70;1.50;;;8.40;99.90;;;;;;5073344;28;20225;-69
2022/02/06 10:11:45;;;;;;;3.58;1.65;;;8.50;99.90;;;;;;5072969;28;20740;-70
2022/02/06 10:14:12;;;;;;;2.05;1.42;;;8.50;99.90;;;;;;5073172;28;20631;-70
2022/02/06 10:16:40;;;;;;;3.22;1.30;;;8.50;99.90;;;;;;5072967;28;20296;-69
2022/02/06 10:19:07;;;;;;;1.90;1.27;;;8.40;99.90;;;;;;5073130;28;20211;-69
2022/02/06 10:21:35;;;;;;;2.63;1.52;;;8.40;99.90;;;;;;5073025;28;20607;-69
2022/02/06 10:24:09;;;;;;;2.00;1.45;;;8.50;99.90;;;;;;5075384;28;20198;-69
2022/02/06 10:26:41;;;;;;;2.80;1.60;;;8.50;99.90;;;;;;5077566;28;20623;-70
2022/02/06 10:29:25;;;;;;;2.25;1.40;;;8.40;99.90;;;;;;5077119;28;20295;-70
2022/02/06 10:31:56;;;;;;;2.35;1.40;;;8.40;99.90;;;;;;5077047;28;20203;-70
2022/02/06 10:34:25;;;;;;;2.00;1.70;;;8.40;99.90;;;;;;5076879;28;20234;-70
2022/02/06 10:37:07;;;;;;;4.35;1.70;;;8.40;99.90;;;;;;5076996;28;20331;-70
2022/02/06 10:39:36;;;;;;;2.10;1.67;;;8.50;99.90;;;;;;5077014;28;20289;-70
2022/02/06 10:42:18;;;;;;;1.92;1.52;;;8.50;99.90;;;;;;5076757;28;20202;-70
2022/02/06 10:44:45;;;;;;;2.00;1.40;;;8.60;99.90;;;;;;5076554;28;20218;-70
2022/02/06 10:47:12;;;;;;;1.63;1.50;;;8.50;99.90;;;;;;5077167;28;20619;-70
2022/02/06 10:49:39;;;;;;;2.65;1.55;;;8.50;99.90;;;;;;5076535;28;20302;-69
2022/02/06 10:52:06;;;;;;;2.75;1.90;;;8.50;99.90;;;;;;5076572;28;20724;-70
2022/02/06 10:54:35;;;;;;;1.30;1.20;;;8.60;99.90;;;;;;5076414;28;20285;-70
2022/02/06 10:57:07;;;;;;;2.63;1.60;;;8.60;99.90;;;;;;5076519;28;20718;-70
2022/02/06 10:59:49;;;;;;;2.55;1.50;;;8.60;99.90;;;;;;5076613;28;20218;-70
2022/02/06 11:02:23;;;;;;;2.75;1.70;;;8.70;99.90;;;;;;5076367;28;20704;-70
2022/02/06 11:04:58;;;;;;;2.25;1.60;;;8.80;99.90;;;;;;5076397;28;20308;-70
2022/02/06 11:07:25;;;;;;;3.65;1.80;;;8.80;99.90;;;;;;5076109;28;20604;-70
2022/02/06 11:09:53;;;;;;;3.70;2.15;;;8.80;99.90;;;;;;5076161;28;20209;-69
2022/02/06 11:12:23;;;;;;;2.35;1.45;;;8.90;99.90;;;;;;5076126;28;20210;-70
2022/02/06 11:14:51;;;;;;;3.47;1.92;;;8.80;99.90;;;;;;5076277;28;20230;-70
2022/02/06 11:17:24;;;;;;;2.25;1.55;;;8.80;99.90;;;;;;5076204;28;20245;-71
2022/02/06 11:20:02;;;;;;;2.90;1.60;;;8.90;99.90;;;;;;5076042;28;20222;-70
2022/02/06 11:22:29;;;;;;;2.05;1.60;;;8.90;99.90;;;;;;5076257;28;20545;-71
2022/02/06 11:24:56;;;;;;;1.70;1.60;;;8.90;99.90;;;;;;5075767;28;20302;-70
2022/02/06 11:27:26;;;;;;;1.70;1.48;;;8.80;99.90;;;;;;5076258;28;20296;-70
2022/02/06 11:29:54;;;;;;;2.88;1.70;;;8.90;99.90;;;;;;5075778;28;20213;-70
2022/02/06 11:32:23;;;;;;;4.13;1.35;;;8.90;99.90;;;;;;5075998;28;20567;-70
2022/02/06 11:34:50;;;;;;;2.33;1.40;;;8.90;99.90;;;;;;5075170;28;20314;-70
2022/02/06 11:46:11;;;;;;;5.82;1.63;;;8.90;99.90;;;;;;5075459;28;20352;-70
2022/02/06 11:48:40;;;;;;;4.30;2.28;;;8.90;99.90;;;;;;5075642;28;20226;-70
2022/02/06 11:51:07;;;;;;;6.45;2.00;;;8.90;99.90;;;;;;5075442;28;20294;-70
2022/02/06 11:53:38;;;;;;;4.80;1.88;;;8.90;99.90;;;;;;5075370;28;20199;-70
2022/02/06 11:56:20;;;;;;;1.80;1.38;;;9.00;99.90;;;;;;5075612;28;20317;-70
2022/02/06 11:58:49;;;;;;;1.30;1.20;;;9.00;99.90;;;;;;5075405;28;20285;-70
2022/02/06 12:01:23;;;;;;;1.50;1.40;;;9.00;99.90;;;;;;5075017;28;20211;-70
2022/02/06 12:04:17;;;;;;;2.50;1.23;;;9.00;99.90;;;;;;5075241;28;20205;-70
2022/02/06 12:06:58;;;;;;;0.93;0.93;;;9.00;99.90;;;;;;5075345;28;20545;-70
2022/02/06 12:09:28;;;;;;;1.52;1.42;;;8.90;99.90;;;;;;5075256;28;20199;-70
2022/02/06 12:12:21;;;;;;;1.52;1.42;;;8.90;99.90;;;;;;5075105;28;20616;-70
2022/02/06 12:15:27;;;;;;;1.50;1.10;;;9.00;99.90;;;;;;5075032;28;20230;-70
2022/02/06 12:18:10;;;;;;;2.13;1.10;;;9.00;99.90;;;;;;5075121;28;20599;-70
2022/02/06 12:20:48;;;;;;;1.20;1.20;;;9.00;99.90;;;;;;5074878;28;20214;-70
2022/02/06 12:23:37;;;;;;;2.63;1.10;;;9.10;99.90;;;;;;5074938;28;20289;-70
2022/02/06 12:26:26;;;;;;;1.50;1.20;;;9.10;99.90;;;;;;5074749;28;20218;-70
2022/02/06 12:28:54;;;;;;;1.42;0.90;;;9.10;99.90;;;;;;5074535;28;20226;-70
2022/02/06 12:31:28;;;;;;;1.15;0.77;;;9.10;99.90;;;;;;5074509;28;20230;-70
2022/02/06 12:34:09;;;;;;;1.13;1.00;;;8.90;99.90;;;;;;5074564;28;20664;-70
2022/02/06 12:37:07;;;;;;;1.75;0.70;;;8.90;99.90;;;;;;5074717;28;20194;-70
2022/02/06 12:39:35;;;;;;;1.08;1.05;;;9.00;99.90;;;;;;5074561;28;20209;-70
2022/02/06 12:42:03;;;;;;;1.70;1.00;;;9.00;99.90;;;;;;5074319;28;20248;-70
2022/02/06 12:44:31;;;;;;;1.75;1.30;;;9.00;99.90;;;;;;5074394;28;20225;-70
2022/02/06 12:47:01;;;;;;;1.05;0.77;;;9.10;99.90;;;;;;5073222;28;20210;-70
2022/02/06 12:49:30;;;;;;;1.33;1.20;;;9.10;99.90;;;;;;5074217;28;20202;-70
2022/02/06 12:51:58;;;;;;;1.08;1.02;;;9.10;99.90;;;;;;5074001;28;20665;-70
2022/02/06 12:54:26;;;;;;;0.90;0.90;;;9.20;99.90;;;;;;5074058;28;20222;-69
2022/02/06 12:56:56;;;;;;;1.50;0.95;;;9.20;99.90;;;;;;5074361;28;20550;-70
2022/02/06 12:59:23;;;;;;;0.95;0.95;;;9.20;99.90;;;;;;5074180;28;20217;-70
2022/02/06 13:01:53;;;;;;;1.20;1.10;;;9.20;99.90;;;;;;5074060;28;20254;-70
2022/02/06 13:04:26;;;;;;;1.05;1.00;;;9.10;99.90;;;;;;5073893;28;20273;-70
2022/02/06 13:06:55;;;;;;;3.03;1.10;;;9.10;99.90;;;;;;5074191;28;20197;-70
2022/02/06 13:09:25;;;;;;;0.90;0.90;;;9.10;99.90;;;;;;5074237;28;20264;-70
2022/02/06 13:12:00;;;;;;;1.90;1.38;;;9.10;99.90;;;;;;5073854;28;20217;-70
2022/02/06 13:14:39;;;;;;;1.08;1.08;;;9.00;99.90;;;;;;5073561;28;20238;-71
2022/02/06 13:17:16;;;;;;;1.13;1.02;;;8.90;99.90;;;;;;5073980;28;20297;-70
2022/02/06 13:19:57;;;;;;;2.78;1.95;;;8.80;99.90;;;;;;5073676;28;20206;-69
2022/02/06 13:22:35;;;;;;;1.85;1.40;;;8.80;99.90;;;;;;5074331;28;20206;-70
2022/02/06 13:30:55;;;;;;;1.30;0.93;;;8.80;99.90;;;;;;5073568;28;20552;-70
2022/02/06 13:33:35;;;;;;;2.22;1.10;;;8.90;99.90;;;;;;5073552;28;20203;-70
2022/02/06 13:36:15;;;;;;;1.25;1.00;;;8.80;99.90;;;;;;5073671;28;20231;-70
2022/02/06 13:38:43;;;;;;;1.20;1.10;;;8.70;99.90;;;;;;5073492;28;20206;-70
2022/02/06 13:41:15;;;;;;;1.02;1.00;;;8.80;99.90;;;;;;5073248;28;20207;-70
2022/02/06 13:43:42;;;;;;;1.10;0.85;;;8.70;99.90;;;;;;5073304;28;20668;-70
2022/02/06 13:46:13;;;;;;;0.90;0.90;;;8.70;99.90;;;;;;5073298;28;20662;-70
2022/02/06 13:48:40;;;;;;;2.55;1.08;;;8.60;99.90;;;;;;5073498;28;20704;-70
2022/02/06 13:51:10;;;;;;;1.00;0.80;;;8.70;99.90;;;;;;5073171;28;20249;-70
2022/02/06 13:53:37;;;;;;;1.33;0.85;;;8.60;99.90;;;;;;5073370;28;20218;-70
2022/02/06 13:56:07;;;;;;;1.55;1.00;;;8.50;99.90;;;;;;5073080;28;20764;-70
2022/02/06 13:58:35;;;;;;;1.10;1.00;;;8.50;99.90;;;;;;5073061;28;20203;-70
2022/02/06 14:01:04;;;;;;;1.83;1.10;;;8.40;99.90;;;;;;5073296;28;20202;-70
2022/02/06 14:03:45;;;;;;;1.17;1.08;;;8.30;99.90;;;;;;5073448;28;20198;-70
2022/02/06 14:06:17;;;;;;;1.35;0.82;;;8.20;99.90;;;;;;5073230;28;20218;-70
2022/02/06 14:08:56;;;;;;;2.67;1.13;;;8.20;99.90;;;;;;5073195;28;20763;-70
2022/02/06 14:11:28;;;;;;;1.40;1.08;;;8.10;99.90;;;;;;5073195;28;20576;-69
2022/02/06 14:14:16;;;;;;;1.30;1.00;;;8.00;99.90;;;;;;5073330;28;20210;-70
2022/02/06 14:16:44;;;;;;;2.08;1.63;;;7.90;99.90;;;;;;5073325;28;20197;-70
2022/02/06 14:19:11;;;;;;;1.02;0.88;;;7.80;99.90;;;;;;5073293;28;20615;-70
2022/02/06 14:21:47;;;;;;;1.05;0.98;;;7.70;99.90;;;;;;5072956;28;20206;-70
2022/02/06 14:24:14;;;;;;;1.35;1.25;;;7.70;99.90;;;;;;5073045;28;20208;-70
2022/02/06 14:27:00;;;;;;;0.95;0.90;;;7.70;99.90;;;;;;5073240;28;20195;-70
2022/02/06 14:29:27;;;;;;;2.70;1.92;;;7.60;99.90;;;;;;5073230;28;20210;-70
2022/02/06 14:31:54;;;;;;;2.47;0.88;;;7.60;99.90;;;;;;5073015;28;20546;-70
2022/02/06 14:34:22;;;;;;;1.25;0.90;;;7.60;99.90;;;;;;5072841;28;20230;-69
2022/02/06 14:37:12;;;;;;;1.17;0.90;;;7.50;99.90;;;;;;5073159;28;20210;-69
2022/02/06 14:40:04;;;;;;;2.35;0.77;;;7.50;99.90;;;;;;5072879;28;20243;-69
2022/02/06 14:42:34;;;;;;;0.90;0.90;;;7.40;99.90;;;;;;5073095;28;20217;-69
2022/02/06 14:45:11;;;;;;;0.75;0.68;;;7.40;99.90;;;;;;5072728;28;20222;-69
2022/02/06 14:47:38;;;;;;;0.90;0.90;;;7.30;99.90;;;;;;5073024;28;20203;-70
2022/02/06 14:50:13;;;;;;;0.52;0.52;;;7.30;99.90;;;;;;5072831;28;20242;-69
2022/02/06 14:52:42;;;;;;;0.80;0.80;;;7.30;99.90;;;;;;5073078;28;20209;-70
2022/02/06 14:55:09;;;;;;;0.68;0.68;;;7.30;99.90;;;;;;5073056;28;20253;-70
2022/02/06 14:57:36;;;;;;;1.77;0.90;;;7.20;99.90;;;;;;5072979;28;20286;-70